createdAt,value
2022-10-25T00:00:19.020Z,0
2022-10-25T00:01:19.120Z,0
2022-10-25T00:02:19.083Z,0
2022-10-25T00:03:19.011Z,0
2022-10-25T00:04:19.006Z,0
2022-10-25T00:05:19.008Z,0
2022-10-25T00:06:19.008Z,0
2022-10-25T00:07:19.026Z,0
2022-10-25T00:08:19.047Z,0
2022-10-25T00:09:19.015Z,0
2022-10-25T00:10:20.033Z,0
2022-10-25T00:11:19.015Z,0
2022-10-25T00:12:19.046Z,0
2022-10-25T00:13:19.215Z,0
2022-10-25T00:14:19.009Z,0
2022-10-25T00:15:19.007Z,0
2022-10-25T00:16:19.020Z,0
2022-10-25T00:17:19.019Z,0
2022-10-25T00:18:19.036Z,0
2022-10-25T00:19:19.006Z,0
2022-10-25T00:20:19.026Z,0
2022-10-25T00:21:19.011Z,0
2022-10-25T00:22:19.009Z,0
2022-10-25T00:23:19.041Z,0
2022-10-25T00:24:19.028Z,0
2022-10-25T00:25:19.037Z,0
2022-10-25T00:26:19.004Z,0
2022-10-25T00:27:19.002Z,0
2022-10-25T00:28:19.023Z,0
2022-10-25T00:29:19.068Z,0
2022-10-25T00:30:19.039Z,0
2022-10-25T00:31:19.141Z,0
2022-10-25T00:32:19.346Z,0
2022-10-25T00:33:19.020Z,0
2022-10-25T00:34:19.258Z,0
2022-10-25T00:35:19.032Z,0
2022-10-25T00:36:19.061Z,0
2022-10-25T00:37:19.000Z,0
2022-10-25T00:38:19.006Z,0
2022-10-25T00:39:19.004Z,0
2022-10-25T00:40:19.036Z,0
2022-10-25T00:41:19.002Z,0
2022-10-25T00:42:19.022Z,0
2022-10-25T00:43:19.012Z,0
2022-10-25T00:44:18.994Z,0
2022-10-25T00:45:19.012Z,0
2022-10-25T00:46:19.028Z,0
2022-10-25T00:47:19.091Z,0
2022-10-25T00:48:19.009Z,0
2022-10-25T00:49:19.002Z,0
2022-10-25T00:50:19.009Z,0
2022-10-25T00:51:19.010Z,0
2022-10-25T00:52:19.007Z,0
2022-10-25T00:53:19.010Z,0
2022-10-25T00:54:19.041Z,0
2022-10-25T00:55:19.012Z,0
2022-10-25T00:56:19.007Z,0
2022-10-25T00:57:19.012Z,0
2022-10-25T00:58:19.017Z,0
2022-10-25T00:59:19.013Z,0
2022-10-25T01:00:19.008Z,0
2022-10-25T01:01:19.104Z,0
2022-10-25T01:02:19.158Z,0
2022-10-25T01:03:19.018Z,0
2022-10-25T01:04:19.026Z,0
2022-10-25T01:05:19.024Z,0
2022-10-25T01:06:19.014Z,0
2022-10-25T01:07:19.005Z,0
2022-10-25T01:08:19.023Z,0
2022-10-25T01:09:19.026Z,0
2022-10-25T01:10:19.014Z,0
2022-10-25T01:11:19.027Z,0
2022-10-25T01:12:19.019Z,0
2022-10-25T01:13:19.009Z,0
2022-10-25T01:14:19.015Z,0
2022-10-25T01:15:19.014Z,0
2022-10-25T01:16:19.013Z,0
2022-10-25T01:17:19.015Z,0
2022-10-25T01:18:19.010Z,0
2022-10-25T01:19:19.025Z,0
2022-10-25T01:20:19.014Z,0
2022-10-25T01:21:19.023Z,0
2022-10-25T01:22:19.127Z,0
2022-10-25T01:23:19.010Z,0
2022-10-25T01:24:19.007Z,0
2022-10-25T01:25:19.043Z,0
2022-10-25T01:26:20.109Z,0
2022-10-25T01:27:19.453Z,0
2022-10-25T01:28:19.579Z,0
2022-10-25T01:29:19.014Z,0
2022-10-25T01:30:19.006Z,0
2022-10-25T01:31:19.092Z,0
2022-10-25T01:32:19.027Z,0
2022-10-25T01:33:19.160Z,0
2022-10-25T01:34:19.016Z,0
2022-10-25T01:35:18.998Z,0
2022-10-25T01:36:19.057Z,0
2022-10-25T01:37:19.005Z,0
2022-10-25T01:38:19.004Z,0
2022-10-25T01:39:19.006Z,0
2022-10-25T01:40:19.026Z,0
2022-10-25T01:41:19.044Z,0
2022-10-25T01:42:19.017Z,0
2022-10-25T01:43:19.028Z,0
2022-10-25T01:44:19.009Z,0
2022-10-25T01:45:19.229Z,0
2022-10-25T01:46:19.033Z,0
2022-10-25T01:47:19.023Z,0
2022-10-25T01:48:19.012Z,0
2022-10-25T01:49:19.020Z,0
2022-10-25T01:50:19.014Z,0
2022-10-25T01:51:19.058Z,0
2022-10-25T01:52:19.025Z,0
2022-10-25T01:53:19.043Z,0
2022-10-25T01:54:19.039Z,0
2022-10-25T01:55:19.052Z,0
2022-10-25T01:56:19.102Z,0
2022-10-25T01:57:19.348Z,0
2022-10-25T01:58:18.992Z,0
2022-10-25T01:59:19.288Z,0
2022-10-25T02:00:19.584Z,0
2022-10-25T02:01:19.174Z,0
2022-10-25T02:02:19.001Z,0
2022-10-25T02:03:19.022Z,0
2022-10-25T02:04:19.025Z,0
2022-10-25T02:05:19.018Z,0
2022-10-25T02:06:19.014Z,0
2022-10-25T02:07:19.005Z,0
2022-10-25T02:08:19.160Z,0
2022-10-25T02:09:19.427Z,0
2022-10-25T02:10:19.328Z,0
2022-10-25T02:11:19.118Z,0
2022-10-25T02:12:19.342Z,0
2022-10-25T02:13:19.077Z,0
2022-10-25T02:14:19.288Z,0
2022-10-25T02:15:19.038Z,0
2022-10-25T02:16:19.198Z,0
2022-10-25T02:17:19.412Z,0
2022-10-25T02:18:19.307Z,0
2022-10-25T02:19:19.014Z,0
2022-10-25T02:20:19.167Z,0
2022-10-25T02:21:19.009Z,0
2022-10-25T02:22:19.012Z,0
2022-10-25T02:23:19.020Z,0
2022-10-25T02:24:19.347Z,0
2022-10-25T02:25:19.011Z,0
2022-10-25T02:26:19.020Z,0
2022-10-25T02:27:19.028Z,0
2022-10-25T02:28:19.024Z,0
2022-10-25T02:29:19.020Z,0
2022-10-25T02:30:19.009Z,0
2022-10-25T02:31:19.033Z,0
2022-10-25T02:32:19.047Z,0
2022-10-25T02:33:19.011Z,0
2022-10-25T02:34:19.009Z,0
2022-10-25T02:35:19.014Z,0
2022-10-25T02:36:19.022Z,0
2022-10-25T02:37:19.021Z,0
2022-10-25T02:38:19.024Z,0
2022-10-25T02:39:19.040Z,0
2022-10-25T02:40:19.183Z,0
2022-10-25T02:41:19.007Z,0
2022-10-25T02:42:19.036Z,0
2022-10-25T02:43:19.024Z,0
2022-10-25T02:44:19.011Z,0
2022-10-25T02:45:19.017Z,0
2022-10-25T02:46:19.024Z,0
2022-10-25T02:47:19.014Z,0
2022-10-25T02:48:19.020Z,0
2022-10-25T02:49:19.041Z,0
2022-10-25T02:50:19.022Z,0
2022-10-25T02:51:19.192Z,0
2022-10-25T02:52:19.010Z,0
2022-10-25T02:53:19.018Z,0
2022-10-25T02:54:19.032Z,0
2022-10-25T02:55:19.016Z,0
2022-10-25T02:56:19.016Z,0
2022-10-25T02:57:19.045Z,0
2022-10-25T02:58:19.015Z,0
2022-10-25T02:59:19.033Z,0
2022-10-25T03:00:19.012Z,0
2022-10-25T03:01:19.153Z,0
2022-10-25T03:02:19.069Z,0
2022-10-25T03:03:19.018Z,0
2022-10-25T03:04:19.019Z,0
2022-10-25T03:05:19.001Z,0
2022-10-25T03:06:19.007Z,0
2022-10-25T03:07:19.006Z,0
2022-10-25T03:08:19.070Z,0
2022-10-25T03:09:19.012Z,0
2022-10-25T03:10:19.012Z,0
2022-10-25T03:11:19.021Z,0
2022-10-25T03:12:19.017Z,0
2022-10-25T03:13:19.031Z,0
2022-10-25T03:14:19.008Z,0
2022-10-25T03:15:19.018Z,0
2022-10-25T03:16:19.019Z,0
2022-10-25T03:17:19.020Z,0
2022-10-25T03:18:19.025Z,0
2022-10-25T03:19:19.016Z,0
2022-10-25T03:20:19.019Z,0
2022-10-25T03:21:19.006Z,0
2022-10-25T03:22:19.004Z,0
2022-10-25T03:23:19.024Z,0
2022-10-25T03:24:19.021Z,0
2022-10-25T03:25:19.013Z,0
2022-10-25T03:26:19.010Z,0
2022-10-25T03:27:18.999Z,0
2022-10-25T03:28:19.013Z,0
2022-10-25T03:29:19.012Z,0
2022-10-25T03:30:19.000Z,0
2022-10-25T03:31:19.003Z,0
2022-10-25T03:32:19.000Z,0
2022-10-25T03:33:19.088Z,0
2022-10-25T03:34:19.029Z,0
2022-10-25T03:35:19.033Z,0
2022-10-25T03:36:19.217Z,0
2022-10-25T03:37:19.054Z,0
2022-10-25T03:38:19.004Z,0
2022-10-25T03:39:19.011Z,0
2022-10-25T03:40:19.014Z,0
2022-10-25T03:41:19.013Z,0
2022-10-25T03:42:19.042Z,0
2022-10-25T03:43:19.029Z,0
2022-10-25T03:44:19.021Z,0
2022-10-25T03:45:19.118Z,0
2022-10-25T03:46:19.346Z,0
2022-10-25T03:47:19.371Z,0
2022-10-25T03:48:19.321Z,0
2022-10-25T03:49:19.015Z,0
2022-10-25T03:50:19.023Z,0
2022-10-25T03:51:19.020Z,0
2022-10-25T03:52:19.071Z,0
2022-10-25T03:53:19.020Z,0
2022-10-25T03:54:19.017Z,0
2022-10-25T03:55:19.023Z,0
2022-10-25T03:56:19.028Z,0
2022-10-25T03:57:19.060Z,0
2022-10-25T03:58:19.013Z,0
2022-10-25T03:59:19.014Z,0
2022-10-25T04:00:19.019Z,0
2022-10-25T04:01:19.156Z,0
2022-10-25T04:02:19.010Z,0
2022-10-25T04:03:19.018Z,0
2022-10-25T04:04:19.008Z,0
2022-10-25T04:05:19.019Z,0
2022-10-25T04:06:19.027Z,0
2022-10-25T04:07:19.018Z,0
2022-10-25T04:08:19.024Z,0
2022-10-25T04:09:19.003Z,0
2022-10-25T04:10:19.002Z,0
2022-10-25T04:11:19.001Z,0
2022-10-25T04:12:19.007Z,0
2022-10-25T04:13:19.014Z,0
2022-10-25T04:14:19.016Z,0
2022-10-25T04:15:19.027Z,0
2022-10-25T04:16:19.171Z,0
2022-10-25T04:17:19.014Z,0
2022-10-25T04:18:19.013Z,0
2022-10-25T04:19:19.562Z,0
2022-10-25T04:20:19.178Z,0
2022-10-25T04:21:19.005Z,0
2022-10-25T04:22:19.322Z,0
2022-10-25T04:23:19.119Z,0
2022-10-25T04:24:19.296Z,0
2022-10-25T04:25:19.106Z,0
2022-10-25T04:26:19.296Z,0
2022-10-25T04:27:19.622Z,0
2022-10-25T04:28:19.017Z,0
2022-10-25T04:29:19.013Z,0
2022-10-25T04:30:19.027Z,0
2022-10-25T04:31:19.247Z,0
2022-10-25T04:33:19.012Z,0
2022-10-25T04:34:19.002Z,0
2022-10-25T04:35:19.007Z,0
2022-10-25T04:36:19.013Z,0
2022-10-25T04:37:19.015Z,0
2022-10-25T04:38:19.003Z,0
2022-10-25T04:39:19.172Z,0
2022-10-25T04:40:24.849Z,0
2022-10-25T04:41:20.115Z,0
2022-10-25T04:42:19.769Z,0
2022-10-25T04:43:19.634Z,0
2022-10-25T04:44:19.016Z,0
2022-10-25T04:45:19.004Z,0
2022-10-25T04:46:19.026Z,0
2022-10-25T04:47:19.033Z,0
2022-10-25T04:48:19.014Z,0
2022-10-25T04:49:19.009Z,0
2022-10-25T04:50:19.021Z,0
2022-10-25T04:51:19.024Z,0
2022-10-25T04:52:19.054Z,0
2022-10-25T04:53:19.121Z,0
2022-10-25T04:54:19.011Z,0
2022-10-25T04:55:19.009Z,0
2022-10-25T04:56:19.009Z,0
2022-10-25T04:57:19.033Z,0
2022-10-25T04:58:19.014Z,0
2022-10-25T04:59:19.020Z,0
2022-10-25T05:00:19.012Z,0
2022-10-25T05:01:19.083Z,0
2022-10-25T05:02:19.043Z,0
2022-10-25T05:03:19.058Z,0
2022-10-25T05:04:19.029Z,0
2022-10-25T05:05:19.216Z,0
2022-10-25T05:06:19.022Z,0
2022-10-25T05:07:19.038Z,0
2022-10-25T05:08:19.007Z,0
2022-10-25T05:09:19.017Z,0
2022-10-25T05:10:19.023Z,0
2022-10-25T05:11:19.012Z,0
2022-10-25T05:12:19.043Z,0
2022-10-25T05:13:19.014Z,0
2022-10-25T05:14:19.022Z,0
2022-10-25T05:15:19.197Z,0
2022-10-25T05:16:19.019Z,0
2022-10-25T05:17:19.042Z,0
2022-10-25T05:18:19.013Z,0
2022-10-25T05:19:19.014Z,0
2022-10-25T05:20:19.016Z,0
2022-10-25T05:21:19.095Z,0
2022-10-25T05:22:19.044Z,0
2022-10-25T05:23:19.018Z,0
2022-10-25T05:24:19.032Z,0
2022-10-25T05:25:19.009Z,0
2022-10-25T05:26:19.019Z,0
2022-10-25T05:27:19.515Z,0
2022-10-25T05:28:19.002Z,0
2022-10-25T05:29:19.005Z,0
2022-10-25T05:30:19.013Z,0.23
2022-10-25T05:31:19.208Z,0.23
2022-10-25T05:32:19.366Z,0.23
2022-10-25T05:33:19.014Z,0.23
2022-10-25T05:34:19.189Z,0.46
2022-10-25T05:35:19.011Z,0.46
2022-10-25T05:36:19.257Z,0.46
2022-10-25T05:37:19.078Z,0.46
2022-10-25T05:38:19.113Z,0.69
2022-10-25T05:39:19.004Z,0.69
2022-10-25T05:40:19.002Z,0.69
2022-10-25T05:41:19.011Z,0.92
2022-10-25T05:42:19.037Z,1.38
2022-10-25T05:43:19.019Z,1.38
2022-10-25T05:44:19.004Z,1.38
2022-10-25T05:45:19.011Z,1.84
2022-10-25T05:46:19.015Z,2.3
2022-10-25T05:47:19.087Z,2.76
2022-10-25T05:48:19.036Z,3.45
2022-10-25T05:49:19.140Z,4.14
2022-10-25T05:50:19.006Z,5.29
2022-10-25T05:51:32.791Z,7.82
2022-10-25T05:52:19.057Z,11.67
2022-10-25T05:53:19.013Z,15.83
2022-10-25T05:54:19.026Z,17.5
2022-10-25T05:55:19.004Z,16.67
2022-10-25T05:56:19.009Z,16.67
2022-10-25T05:57:19.039Z,20
2022-10-25T05:58:19.006Z,21.67
2022-10-25T05:59:19.027Z,27.5
2022-10-25T06:00:19.023Z,35
2022-10-25T06:01:19.318Z,43.33
2022-10-25T06:02:19.257Z,50
2022-10-25T06:03:19.014Z,56.67
2022-10-25T06:04:19.047Z,65
2022-10-25T06:05:19.020Z,65
2022-10-25T06:06:18.999Z,72.5
2022-10-25T06:07:19.009Z,78.33
2022-10-25T06:08:19.020Z,76.67
2022-10-25T06:09:19.050Z,91.67
2022-10-25T06:10:19.036Z,105.83
2022-10-25T06:11:19.018Z,105
2022-10-25T06:12:19.025Z,110.83
2022-10-25T06:13:19.016Z,104.17
2022-10-25T06:14:19.036Z,107.5
2022-10-25T06:15:19.009Z,123.33
2022-10-25T06:16:19.009Z,106.67
2022-10-25T06:17:19.033Z,111.67
2022-10-25T06:18:19.026Z,96.67
2022-10-25T06:19:19.005Z,70
2022-10-25T06:20:19.020Z,77.5
2022-10-25T06:21:19.006Z,75
2022-10-25T06:22:19.012Z,70
2022-10-25T06:23:19.038Z,130
2022-10-25T06:24:19.143Z,155
2022-10-25T06:25:19.015Z,161.67
2022-10-25T06:26:19.003Z,164.17
2022-10-25T06:27:19.004Z,161.67
2022-10-25T06:28:19.010Z,155.83
2022-10-25T06:29:19.001Z,184.17
2022-10-25T06:30:19.031Z,177.5
2022-10-25T06:31:19.019Z,188.33
2022-10-25T06:32:19.019Z,165.83
2022-10-25T06:33:19.019Z,160
2022-10-25T06:34:19.033Z,164.17
2022-10-25T06:35:19.085Z,182.5
2022-10-25T06:36:19.013Z,162.5
2022-10-25T06:37:19.011Z,146.67
2022-10-25T06:38:19.014Z,135
2022-10-25T06:39:19.009Z,145
2022-10-25T06:40:19.038Z,177.5
2022-10-25T06:41:19.020Z,233.33
2022-10-25T06:42:18.999Z,229.17
2022-10-25T06:43:19.010Z,191.67
2022-10-25T06:44:19.010Z,191.67
2022-10-25T06:45:19.018Z,225
2022-10-25T06:46:19.020Z,313.33
2022-10-25T06:47:19.043Z,407.5
2022-10-25T06:48:19.002Z,446.67
2022-10-25T06:49:19.230Z,430.83
2022-10-25T06:50:19.428Z,426.67
2022-10-25T06:51:18.999Z,417.5
2022-10-25T06:52:19.285Z,410.83
2022-10-25T06:53:19.563Z,405.83
2022-10-25T06:54:19.028Z,382.5
2022-10-25T06:55:19.016Z,326.67
2022-10-25T06:56:19.066Z,277.5
2022-10-25T06:57:19.296Z,232.5
2022-10-25T06:58:19.233Z,220
2022-10-25T06:59:19.949Z,290.83
2022-10-25T07:00:19.007Z,363.33
2022-10-25T07:01:19.187Z,365.83
2022-10-25T07:02:19.300Z,347.5
2022-10-25T07:03:19.023Z,261.67
2022-10-25T07:04:19.005Z,258.33
2022-10-25T07:05:19.005Z,293.33
2022-10-25T07:06:19.085Z,342.5
2022-10-25T07:07:19.006Z,462.5
2022-10-25T07:08:19.009Z,700.83
2022-10-25T07:09:19.001Z,870
2022-10-25T07:10:19.016Z,1065.83
2022-10-25T07:11:19.054Z,1085
2022-10-25T07:12:19.015Z,1134.17
2022-10-25T07:13:19.008Z,987.5
2022-10-25T07:14:19.014Z,992.5
2022-10-25T07:16:19.003Z,1252.5
2022-10-25T07:17:19.002Z,1331.67
2022-10-25T07:18:19.008Z,1427.5
2022-10-25T07:19:19.014Z,1484.17
2022-10-25T07:20:19.007Z,1516.67
2022-10-25T07:21:19.011Z,1445.83
2022-10-25T07:22:19.025Z,1309.17
2022-10-25T07:23:19.049Z,1250
2022-10-25T07:24:19.020Z,1273.33
2022-10-25T07:25:19.008Z,1495
2022-10-25T07:26:19.035Z,1780.83
2022-10-25T07:27:19.024Z,2168.33
2022-10-25T07:28:19.012Z,2545.83
2022-10-25T07:29:19.019Z,2865
2022-10-25T07:30:19.012Z,2806.67
2022-10-25T07:31:19.033Z,2572.5
2022-10-25T07:32:19.014Z,2292.5
2022-10-25T07:33:19.023Z,2150.83
2022-10-25T07:34:19.017Z,2025
2022-10-25T07:35:19.009Z,2162.5
2022-10-25T07:36:19.002Z,2529.17
2022-10-25T07:37:19.016Z,3520
2022-10-25T07:38:19.011Z,5085
2022-10-25T07:39:19.010Z,5618.33
2022-10-25T07:40:19.005Z,5153.33
2022-10-25T07:41:19.025Z,4557.5
2022-10-25T07:42:19.007Z,3724.17
2022-10-25T07:43:19.019Z,3128.33
2022-10-25T07:44:22.633Z,2554.17
2022-10-25T07:45:22.963Z,2211.67
2022-10-25T07:46:19.012Z,2034.17
2022-10-25T07:47:19.027Z,2125
2022-10-25T07:48:19.013Z,2225.83
2022-10-25T07:49:19.009Z,2835
2022-10-25T07:50:19.027Z,3932.5
2022-10-25T07:51:19.107Z,3809.17
2022-10-25T07:52:19.344Z,2560.83
2022-10-25T07:53:19.546Z,2798.33
2022-10-25T07:54:19.974Z,3340
2022-10-25T07:55:19.502Z,3868.33
2022-10-25T07:56:22.100Z,5034.17
2022-10-25T07:57:19.007Z,6112.5
2022-10-25T07:58:19.008Z,6464.17
2022-10-25T07:59:19.010Z,5491.67
2022-10-25T08:00:19.003Z,4353.33
2022-10-25T08:01:19.091Z,4203.33
2022-10-25T08:02:20.887Z,5094.17
2022-10-25T08:03:19.079Z,4805
2022-10-25T08:04:19.025Z,5247.5
2022-10-25T08:05:19.034Z,6940.83
2022-10-25T08:06:19.076Z,7893.33
2022-10-25T08:07:19.021Z,7260.83
2022-10-25T08:08:19.003Z,6938.33
2022-10-25T08:09:33.597Z,7178.33
2022-10-25T08:10:19.011Z,5884.17
2022-10-25T08:11:19.027Z,5971.67
2022-10-25T08:12:22.496Z,5419.17
2022-10-25T08:13:19.008Z,6774.17
2022-10-25T08:14:19.084Z,7679.17
2022-10-25T08:15:19.012Z,7490.83
2022-10-25T08:16:19.015Z,7210.83
2022-10-25T08:17:19.011Z,6823.33
2022-10-25T08:18:19.022Z,6384.17
2022-10-25T08:19:19.001Z,5285
2022-10-25T08:20:19.011Z,5182.5
2022-10-25T08:21:19.009Z,5525
2022-10-25T08:22:19.061Z,5084.17
2022-10-25T08:23:19.008Z,5020
2022-10-25T08:25:19.970Z,5357.5
2022-10-25T08:26:19.001Z,4665
2022-10-25T08:27:19.034Z,4860.83
2022-10-25T08:28:19.000Z,5826.67
2022-10-25T08:29:19.029Z,5346.67
2022-10-25T08:30:19.015Z,4322.5
2022-10-25T08:31:19.049Z,3956.67
2022-10-25T08:32:19.069Z,3914.17
2022-10-25T08:33:18.997Z,7110.83
2022-10-25T08:34:19.024Z,8933.33
2022-10-25T08:35:19.033Z,8790
2022-10-25T08:36:19.016Z,9234.17
2022-10-25T08:37:19.013Z,6889.17
2022-10-25T08:38:19.042Z,8147.5
2022-10-25T08:39:19.012Z,6346.67
2022-10-25T08:40:19.223Z,8965
2022-10-25T08:41:19.044Z,7310.83
2022-10-25T08:42:19.185Z,6440.83
2022-10-25T08:43:19.030Z,10000.83
2022-10-25T08:44:18.993Z,4691.67
2022-10-25T08:45:19.280Z,4318.33
2022-10-25T08:46:19.005Z,4655.83
2022-10-25T08:47:19.007Z,9431.67
2022-10-25T08:48:19.188Z,5984.17
2022-10-25T08:49:19.010Z,5869.17
2022-10-25T08:50:19.740Z,6814.17
2022-10-25T08:51:18.999Z,7484.17
2022-10-25T08:52:19.011Z,7697.5
2022-10-25T08:53:19.011Z,6472.5
2022-10-25T08:54:19.005Z,5753.33
2022-10-25T08:55:19.000Z,5555.83
2022-10-25T08:56:19.009Z,5239.17
2022-10-25T08:57:19.008Z,6960
2022-10-25T08:58:19.006Z,9668.33
2022-10-25T08:59:19.018Z,8534.17
2022-10-25T09:00:19.072Z,7265.83
2022-10-25T09:01:19.151Z,7079.17
2022-10-25T09:02:19.099Z,6699.17
2022-10-25T09:03:19.009Z,6645.83
2022-10-25T09:04:19.003Z,8083.33
2022-10-25T09:05:19.009Z,11766.67
2022-10-25T09:06:19.010Z,6845.83
2022-10-25T09:07:18.991Z,5602.5
2022-10-25T09:08:19.002Z,4729.17
2022-10-25T09:09:19.005Z,10454.17
2022-10-25T09:10:19.043Z,9035
2022-10-25T09:11:19.012Z,12593.33
2022-10-25T09:12:18.990Z,4949.17
2022-10-25T09:13:19.017Z,7404.17
2022-10-25T09:14:19.016Z,13175.83
2022-10-25T09:15:19.107Z,7872.5
2022-10-25T09:16:19.001Z,11230.83
2022-10-25T09:17:19.008Z,16040.83
2022-10-25T09:18:18.999Z,11108.33
2022-10-25T09:19:19.008Z,10225.83
2022-10-25T09:20:19.050Z,11468.33
2022-10-25T09:21:22.555Z,18265
2022-10-25T09:22:19.003Z,9286.67
2022-10-25T09:23:19.069Z,9595.83
2022-10-25T09:24:19.013Z,12908.33
2022-10-25T09:25:19.019Z,11139.17
2022-10-25T09:26:18.997Z,10306.67
2022-10-25T09:27:19.014Z,10582.5
2022-10-25T09:28:18.995Z,8652.5
2022-10-25T09:29:19.014Z,8250
2022-10-25T09:30:19.006Z,16450
2022-10-25T09:31:18.998Z,16501.67
2022-10-25T09:32:19.015Z,11369.17
2022-10-25T09:33:19.016Z,17536.67
2022-10-25T09:34:19.012Z,17699.17
2022-10-25T09:35:18.996Z,18347.5
2022-10-25T09:36:19.015Z,11770
2022-10-25T09:37:19.015Z,9649.17
2022-10-25T09:38:19.009Z,9017.5
2022-10-25T09:39:18.999Z,9660
2022-10-25T09:40:18.995Z,8950.83
2022-10-25T09:41:19.009Z,6980.83
2022-10-25T09:42:18.994Z,5237.5
2022-10-25T09:43:18.996Z,4607.5
2022-10-25T09:44:19.001Z,5824.17
2022-10-25T09:45:19.034Z,7125.83
2022-10-25T09:46:18.995Z,7415.83
2022-10-25T09:47:19.012Z,7134.17
2022-10-25T09:48:19.007Z,6200
2022-10-25T09:49:19.019Z,5285
2022-10-25T09:50:19.004Z,6625.83
2022-10-25T09:51:18.995Z,6309.17
2022-10-25T09:52:18.998Z,5996.67
2022-10-25T09:53:20.377Z,7206.67
2022-10-25T09:54:18.996Z,10277.5
2022-10-25T09:55:19.013Z,17312.5
2022-10-25T09:56:18.997Z,9420
2022-10-25T09:57:19.239Z,8864.17
2022-10-25T09:58:19.071Z,11977.5
2022-10-25T09:59:19.287Z,8859.17
2022-10-25T10:00:20.022Z,9337.5
2022-10-25T10:01:19.229Z,10935.83
2022-10-25T10:02:19.136Z,11733.33
2022-10-25T10:03:18.996Z,14567.5
2022-10-25T10:04:18.999Z,16433.33
2022-10-25T10:05:19.007Z,17799.17
2022-10-25T10:06:19.004Z,17549.17
2022-10-25T10:07:19.000Z,17420.83
2022-10-25T10:08:19.003Z,17650.83
2022-10-25T10:09:18.997Z,18065.83
2022-10-25T10:10:19.256Z,18157.5
2022-10-25T10:11:19.022Z,17558.33
2022-10-25T10:12:19.745Z,17238.33
2022-10-25T10:13:19.005Z,16245.83
2022-10-25T10:14:19.338Z,16380
2022-10-25T10:15:19.034Z,16712.5
2022-10-25T10:16:19.282Z,17665
2022-10-25T10:17:19.010Z,17349.17
2022-10-25T10:18:19.006Z,17393.33
2022-10-25T10:19:19.005Z,11259.17
2022-10-25T10:20:19.014Z,16254.17
2022-10-25T10:21:19.021Z,7648.33
2022-10-25T10:22:19.005Z,7546.67
2022-10-25T10:23:19.012Z,9565
2022-10-25T10:24:19.130Z,12726.67
2022-10-25T10:25:18.999Z,11327.5
2022-10-25T10:26:19.012Z,17059.17
2022-10-25T10:27:19.001Z,11893.33
2022-10-25T10:28:18.999Z,13541.67
2022-10-25T10:29:19.002Z,19712.5
2022-10-25T10:30:18.999Z,10955
2022-10-25T10:31:19.013Z,10795.83
2022-10-25T10:32:19.007Z,12508.33
2022-10-25T10:33:19.017Z,11146.67
2022-10-25T10:34:19.005Z,10625
2022-10-25T10:35:19.015Z,9942.5
2022-10-25T10:36:18.993Z,9976.67
2022-10-25T10:37:19.021Z,9232.5
2022-10-25T10:38:18.986Z,9050.83
2022-10-25T10:39:18.997Z,9423.33
2022-10-25T10:40:19.003Z,9710
2022-10-25T10:41:18.999Z,9765
2022-10-25T10:42:19.034Z,9295.83
2022-10-25T10:43:19.013Z,8958.33
2022-10-25T10:44:19.016Z,8170.83
2022-10-25T10:45:19.018Z,8227.5
2022-10-25T10:46:19.013Z,8619.17
2022-10-25T10:47:18.993Z,9247.5
2022-10-25T10:48:19.013Z,8837.5
2022-10-25T10:49:18.996Z,8293.33
2022-10-25T10:50:18.999Z,7456.67
2022-10-25T10:51:39.255Z,7042.5
2022-10-25T10:52:19.044Z,6412.5
2022-10-25T10:53:19.003Z,6452.5
2022-10-25T10:54:19.005Z,7725
2022-10-25T10:55:19.011Z,10814.17
2022-10-25T10:56:19.007Z,15437.5
2022-10-25T10:57:19.007Z,12266.67
2022-10-25T10:58:18.995Z,11585.83
2022-10-25T10:59:19.005Z,12877.5
2022-10-25T11:00:19.027Z,13110
2022-10-25T11:01:19.088Z,12137.5
2022-10-25T11:02:19.265Z,12167.5
2022-10-25T11:03:18.995Z,11194.17
2022-10-25T11:04:20.173Z,9860.83
2022-10-25T11:05:18.996Z,9735.83
2022-10-25T11:06:19.002Z,10125
2022-10-25T11:07:19.008Z,10312.5
2022-10-25T11:08:19.012Z,10530.83
2022-10-25T11:09:19.060Z,10717.5
2022-10-25T11:10:19.003Z,10597.5
2022-10-25T11:11:18.995Z,11590.83
2022-10-25T11:12:19.004Z,10040
2022-10-25T11:13:18.997Z,10937.5
2022-10-25T11:14:19.004Z,21518.33
2022-10-25T11:15:18.996Z,22097.5
2022-10-25T11:16:20.228Z,10877.5
2022-10-25T11:17:18.998Z,10876.67
2022-10-25T11:18:19.009Z,13031.67
2022-10-25T11:19:19.010Z,11341.67
2022-10-25T11:20:19.024Z,16960
2022-10-25T11:21:19.005Z,15252.5
2022-10-25T11:22:18.994Z,21131.67
2022-10-25T11:23:18.993Z,20513.33
2022-10-25T11:24:19.008Z,21946.67
2022-10-25T11:25:19.013Z,21160.83
2022-10-25T11:26:19.013Z,20083.33
2022-10-25T11:27:19.001Z,21109.17
2022-10-25T11:28:18.998Z,19760.83
2022-10-25T11:29:19.006Z,12579.17
2022-10-25T11:30:19.008Z,14107.5
2022-10-25T11:31:19.015Z,11436.67
2022-10-25T11:32:19.032Z,14606.67
2022-10-25T11:33:19.007Z,19274.17
2022-10-25T11:34:19.016Z,18659.17
2022-10-25T11:35:19.013Z,17635.83
2022-10-25T11:36:19.007Z,11313.33
2022-10-25T11:37:18.998Z,10618.33
2022-10-25T11:38:19.005Z,11887.5
2022-10-25T11:39:19.000Z,14480.83
2022-10-25T11:40:19.004Z,10280
2022-10-25T11:41:19.007Z,9135.83
2022-10-25T11:42:19.049Z,18288.33
2022-10-25T11:43:19.003Z,19390.83
2022-10-25T11:44:18.994Z,22051.67
2022-10-25T11:45:19.001Z,22458.33
2022-10-25T11:46:18.996Z,21104.17
2022-10-25T11:47:18.998Z,21493.33
2022-10-25T11:48:18.988Z,21581.67
2022-10-25T11:49:19.008Z,22674.17
2022-10-25T11:50:19.042Z,22240
2022-10-25T11:51:18.992Z,17730.83
2022-10-25T11:52:19.006Z,10924.17
2022-10-25T11:53:19.391Z,12431.67
2022-10-25T11:54:19.458Z,16350.83
2022-10-25T11:55:19.887Z,10547.5
2022-10-25T11:56:19.244Z,18720.83
2022-10-25T11:57:19.004Z,17365
2022-10-25T11:58:19.254Z,16430
2022-10-25T11:59:19.513Z,15827.5
2022-10-25T12:00:19.060Z,16655.83
2022-10-25T12:01:19.237Z,15409.17
2022-10-25T12:02:19.087Z,15475.83
2022-10-25T12:03:18.999Z,14347.5
2022-10-25T12:04:19.016Z,16140
2022-10-25T12:05:19.015Z,15742.5
2022-10-25T12:06:19.023Z,17180
2022-10-25T12:07:19.018Z,17178.33
2022-10-25T12:08:18.997Z,10920
2022-10-25T12:09:19.000Z,19639.17
2022-10-25T12:10:19.001Z,19264.17
2022-10-25T12:11:19.107Z,18954.17
2022-10-25T12:12:19.020Z,22618.33
2022-10-25T12:13:19.010Z,21793.33
2022-10-25T12:14:18.998Z,14162.5
2022-10-25T12:15:19.008Z,11843.33
2022-10-25T12:16:19.013Z,10655
2022-10-25T12:17:19.034Z,10773.33
2022-10-25T12:18:21.527Z,10666.67
2022-10-25T12:19:19.005Z,14016.67
2022-10-25T12:20:19.011Z,5789.17
2022-10-25T12:21:19.011Z,6329.17
2022-10-25T12:22:18.996Z,6117.5
2022-10-25T12:23:19.014Z,6092.5
2022-10-25T12:24:19.023Z,5940
2022-10-25T12:25:19.015Z,6335.83
2022-10-25T12:26:19.011Z,6449.17
2022-10-25T12:27:19.012Z,6624.17
2022-10-25T12:28:19.017Z,7180.83
2022-10-25T12:29:19.048Z,7626.67
2022-10-25T12:30:19.283Z,7867.5
2022-10-25T12:31:19.000Z,7797.5
2022-10-25T12:32:19.008Z,7452.5
2022-10-25T12:33:19.008Z,7697.5
2022-10-25T12:34:19.064Z,6768.33
2022-10-25T12:35:19.021Z,6751.67
2022-10-25T12:36:19.007Z,6530
2022-10-25T12:37:19.022Z,5507.5
2022-10-25T12:38:19.003Z,4126.67
2022-10-25T12:39:19.040Z,3256.67
2022-10-25T12:40:19.034Z,3084.17
2022-10-25T12:41:19.008Z,3597.5
2022-10-25T12:42:19.028Z,11085.83
2022-10-25T12:43:19.012Z,13123.33
2022-10-25T12:44:19.051Z,12208.33
2022-10-25T12:45:19.012Z,7370
2022-10-25T12:46:19.000Z,8023.33
2022-10-25T12:47:19.018Z,8829.17
2022-10-25T12:48:19.000Z,8946.67
2022-10-25T12:49:19.026Z,8507.5
2022-10-25T12:50:19.033Z,8140
2022-10-25T12:51:19.086Z,7997.5
2022-10-25T12:52:19.128Z,7946.67
2022-10-25T12:53:18.991Z,7716.67
2022-10-25T12:54:19.065Z,7667.5
2022-10-25T12:55:19.011Z,7613.33
2022-10-25T12:56:19.019Z,7443.33
2022-10-25T12:57:18.998Z,7363.33
2022-10-25T12:58:19.024Z,7219.17
2022-10-25T12:59:19.010Z,7074.17
2022-10-25T13:01:19.062Z,6820
2022-10-25T13:02:19.113Z,6433.33
2022-10-25T13:03:19.597Z,6155.83
2022-10-25T13:04:19.007Z,6382.5
2022-10-25T13:05:18.986Z,6440
2022-10-25T13:06:19.293Z,6259.17
2022-10-25T13:07:18.995Z,5955
2022-10-25T13:08:19.253Z,5467.5
2022-10-25T13:09:22.142Z,5070.83
2022-10-25T13:10:19.040Z,5028.33
2022-10-25T13:11:19.007Z,5068.33
2022-10-25T13:12:19.035Z,5975.83
2022-10-25T13:13:19.091Z,7205
2022-10-25T13:14:19.006Z,7434.17
2022-10-25T13:15:19.059Z,7007.5
2022-10-25T13:16:19.001Z,7150
2022-10-25T13:17:19.006Z,7917.5
2022-10-25T13:18:22.191Z,9245
2022-10-25T13:19:21.730Z,9642.5
2022-10-25T13:21:19.007Z,7520